Time;durP1;ratioP1;P1;durP2;ratioP2;P2;SDS_P1;SDS_P2;PMS_P1;PMS_P2;Temp;Humidity;BMP_temperature;BMP_pressure;BME280_temperature;BME280_humidity;BME280_pressure;Samples;Min_cycle;Max_cycle;Signal;HPM_P1;HPM_P2
2022/06/03 00:01:13;;;;;;;18.55;17.10;;;;;;;;;;5054541;28;20255;-86
2022/06/03 00:03:49;;;;;;;17.83;16.50;;;;;;;;;;5034540;28;20255;-88
2022/06/03 00:06:34;;;;;;;18.05;16.75;;;;;;;;;;5037618;28;20284;-88
2022/06/03 00:09:07;;;;;;;17.40;16.00;;;;;;;;;;5022549;28;20261;-87
2022/06/03 00:11:58;;;;;;;17.17;15.98;;;;;;;;;;5045490;28;20193;-89
2022/06/03 00:14:42;;;;;;;17.27;15.98;;;;;;;;;;4943639;28;20292;-88
2022/06/03 00:17:14;;;;;;;16.70;15.50;;;;;;;;;;5051403;28;20221;-88
2022/06/03 00:19:51;;;;;;;17.10;15.90;;;;;;;;;;5053361;28;20241;-88
2022/06/03 00:22:29;;;;;;;16.45;15.25;;;;;;;;;;5050619;28;20209;-88
2022/06/03 00:25:14;;;;;;;16.17;14.98;;;;;;;;;;5033946;28;20213;-87
2022/06/03 00:27:56;;;;;;;16.17;15.00;;;;;;;;;;5049278;28;20197;-86
2022/06/03 00:30:29;;;;;;;15.43;14.35;;;;;;;;;;5038482;28;20305;-88
2022/06/03 00:33:25;;;;;;;15.88;14.68;;;;;;;;;;5036779;28;20209;-88
2022/06/03 00:35:58;;;;;;;15.85;14.75;;;;;;;;;;5008520;28;20216;-88
2022/06/03 00:38:34;;;;;;;15.10;14.00;;;;;;;;;;5052416;28;20213;-87
2022/06/03 00:41:08;;;;;;;16.02;14.82;;;;;;;;;;5043796;28;20295;-87
2022/06/03 00:43:43;;;;;;;15.13;13.93;;;;;;;;;;5042086;28;20284;-87
2022/06/03 00:46:18;;;;;;;14.85;13.75;;;;;;;;;;5044967;28;20200;-87
2022/06/03 00:48:55;;;;;;;15.23;14.10;;;;;;;;;;5054441;28;20228;-86
2022/06/03 00:51:46;;;;;;;15.35;14.25;;;;;;;;;;5043296;28;20198;-88
2022/06/03 00:54:26;;;;;;;14.02;13.02;;;;;;;;;;5009259;28;20209;-88
2022/06/03 00:57:14;;;;;;;14.15;13.15;;;;;;;;;;5044203;28;20216;-88
2022/06/03 00:59:56;;;;;;;14.07;13.00;;;;;;;;;;5032886;28;20269;-88
2022/06/03 01:02:43;;;;;;;14.68;13.68;;;;;;;;;;5033301;28;20299;-88
2022/06/03 01:05:16;;;;;;;13.85;12.85;;;;;;;;;;5032591;28;20234;-88
2022/06/03 01:07:51;;;;;;;13.77;12.68;;;;;;;;;;5032873;28;20227;-87
2022/06/03 01:10:28;;;;;;;13.88;12.88;;;;;;;;;;5047212;28;20219;-88
2022/06/03 01:13:12;;;;;;;14.23;13.20;;;;;;;;;;5032815;28;20232;-87
2022/06/03 01:15:43;;;;;;;13.52;12.52;;;;;;;;;;5036588;28;20197;-88
2022/06/03 01:18:17;;;;;;;13.43;12.43;;;;;;;;;;5033545;28;20225;-88
2022/06/03 01:20:49;;;;;;;12.52;11.65;;;;;;;;;;5051370;28;20236;-88
2022/06/03 01:23:37;;;;;;;13.65;12.60;;;;;;;;;;5048912;28;20198;-88
2022/06/03 01:26:18;;;;;;;13.93;12.93;;;;;;;;;;5032726;28;20201;-88
2022/06/03 01:28:54;;;;;;;12.70;11.82;;;;;;;;;;5047230;28;20221;-87
2022/06/03 01:31:44;;;;;;;12.40;11.60;;;;;;;;;;5041404;28;20201;-87
2022/06/03 01:34:22;;;;;;;12.55;11.65;;;;;;;;;;5044104;28;20229;-87
2022/06/03 01:36:58;;;;;;;12.05;11.25;;;;;;;;;;5051790;28;20334;-89
2022/06/03 01:39:51;;;;;;;11.88;10.98;;;;;;;;;;5032489;28;20218;-88
2022/06/03 01:42:33;;;;;;;12.40;11.50;;;;;;;;;;5032266;28;20202;-87
2022/06/03 01:45:12;;;;;;;12.10;11.30;;;;;;;;;;5039124;28;20201;-88
2022/06/03 01:48:00;;;;;;;11.60;10.80;;;;;;;;;;5051942;28;20193;-88
2022/06/03 01:50:49;;;;;;;11.30;10.50;;;;;;;;;;5027235;28;20292;-88
2022/06/03 01:53:32;;;;;;;11.60;10.80;;;;;;;;;;5032103;28;20210;-87
2022/06/03 01:56:13;;;;;;;11.20;10.40;;;;;;;;;;5048822;28;20288;-88
2022/06/03 01:59:00;;;;;;;11.85;11.00;;;;;;;;;;5050281;28;20241;-88
2022/06/03 02:01:42;;;;;;;11.25;10.45;;;;;;;;;;5032283;28;20214;-87
2022/06/03 02:04:21;;;;;;;11.23;10.43;;;;;;;;;;5032156;28;20228;-87
2022/06/03 02:07:04;;;;;;;11.43;10.63;;;;;;;;;;5048445;28;20204;-88
2022/06/03 02:09:45;;;;;;;11.05;10.27;;;;;;;;;;5031746;28;20214;-87
2022/06/03 02:12:27;;;;;;;10.55;9.75;;;;;;;;;;5032662;28;20283;-87
2022/06/03 02:15:07;;;;;;;10.77;10.02;;;;;;;;;;5045454;28;20204;-88
2022/06/03 02:17:44;;;;;;;10.48;9.80;;;;;;;;;;5031536;28;20228;-88
2022/06/03 02:20:26;;;;;;;10.75;9.93;;;;;;;;;;5031775;28;20721;-87
2022/06/03 02:23:10;;;;;;;10.25;9.45;;;;;;;;;;5032328;28;20224;-87
2022/06/03 02:25:57;;;;;;;10.55;9.85;;;;;;;;;;5031830;28;20202;-86
2022/06/03 02:28:39;;;;;;;9.90;9.20;;;;;;;;;;5034965;28;20222;-87
2022/06/03 02:31:16;;;;;;;9.65;8.95;;;;;;;;;;5048494;28;20204;-88
2022/06/03 02:34:01;;;;;;;9.73;9.02;;;;;;;;;;5043881;28;20204;-89
2022/06/03 02:36:46;;;;;;;9.63;9.00;;;;;;;;;;5047834;28;20225;-88
2022/06/03 02:39:27;;;;;;;9.65;8.95;;;;;;;;;;5066695;23;20229;-85
2022/06/03 02:42:03;;;;;;;9.32;8.73;;;;;;;;;;5052497;28;20204;-85
2022/06/03 02:44:48;;;;;;;9.25;8.65;;;;;;;;;;5053011;28;20188;-85
2022/06/03 02:47:37;;;;;;;9.10;8.50;;;;;;;;;;5035577;28;20196;-84
2022/06/03 02:50:13;;;;;;;9.57;8.88;;;;;;;;;;5071630;28;20267;-85
2022/06/03 02:53:03;;;;;;;8.85;8.25;;;;;;;;;;5073277;28;20192;-84
2022/06/03 02:55:48;;;;;;;9.02;8.32;;;;;;;;;;5073192;28;20196;-84
2022/06/03 02:58:34;;;;;;;9.23;8.52;;;;;;;;;;5072593;28;20655;-84
2022/06/03 03:01:13;;;;;;;8.27;7.75;;;;;;;;;;5073278;28;20204;-85
2022/06/03 03:03:51;;;;;;;8.75;8.15;;;;;;;;;;5061603;28;20197;-85
2022/06/03 03:06:33;;;;;;;8.55;7.85;;;;;;;;;;5072789;28;20292;-85
2022/06/03 03:09:12;;;;;;;8.20;7.70;;;;;;;;;;5072280;28;20315;-85
2022/06/03 03:12:00;;;;;;;8.65;8.05;;;;;;;;;;5072989;28;20253;-85
2022/06/03 03:14:45;;;;;;;7.95;7.45;;;;;;;;;;5066176;28;20197;-85
2022/06/03 03:17:30;;;;;;;8.38;7.78;;;;;;;;;;5072322;28;20220;-85
2022/06/03 03:20:15;;;;;;;7.93;7.40;;;;;;;;;;5042927;28;20306;-85
2022/06/03 03:22:51;;;;;;;8.52;7.97;;;;;;;;;;5023479;28;20296;-84
2022/06/03 03:25:39;;;;;;;8.10;7.53;;;;;;;;;;5076781;28;20264;-84
2022/06/03 03:28:24;;;;;;;7.80;7.20;;;;;;;;;;5060891;28;20200;-82
2022/06/03 03:30:59;;;;;;;8.02;7.43;;;;;;;;;;5074641;28;20283;-83
2022/06/03 03:33:35;;;;;;;7.90;7.40;;;;;;;;;;5075377;28;20734;-85
2022/06/03 03:36:15;;;;;;;7.65;7.05;;;;;;;;;;5066948;28;20201;-84
2022/06/03 03:39:02;;;;;;;7.60;7.10;;;;;;;;;;5083438;28;20239;-85
2022/06/03 03:41:48;;;;;;;7.50;7.00;;;;;;;;;;5082581;28;20648;-85
2022/06/03 03:44:38;;;;;;;7.13;6.63;;;;;;;;;;5076125;28;20192;-84
2022/06/03 03:47:16;;;;;;;7.30;6.80;;;;;;;;;;5076584;28;20193;-83
2022/06/03 03:49:59;;;;;;;7.05;6.65;;;;;;;;;;5084081;28;20219;-84
2022/06/03 03:52:36;;;;;;;7.28;6.78;;;;;;;;;;5089696;28;20698;-84
2022/06/03 03:55:22;;;;;;;7.00;6.50;;;;;;;;;;5061476;28;20208;-84
2022/06/03 03:58:07;;;;;;;6.80;6.30;;;;;;;;;;5096809;28;20208;-84
2022/06/03 04:00:51;;;;;;;6.43;6.03;;;;;;;;;;5095940;28;20283;-83
2022/06/03 04:03:34;;;;;;;6.65;6.15;;;;;;;;;;5081143;28;20193;-85
2022/06/03 04:06:19;;;;;;;6.85;6.35;;;;;;;;;;5076538;28;20258;-84
2022/06/03 04:08:57;;;;;;;6.93;6.43;;;;;;;;;;5077189;28;20212;-84
2022/06/03 04:11:38;;;;;;;6.72;6.22;;;;;;;;;;5076370;28;20193;-84
2022/06/03 04:14:24;;;;;;;6.72;6.22;;;;;;;;;;5093243;28;20200;-85
2022/06/03 04:17:10;;;;;;;6.78;6.28;;;;;;;;;;5070604;28;20207;-86
2022/06/03 04:19:57;;;;;;;6.65;6.18;;;;;;;;;;5071574;28;20266;-86
2022/06/03 04:22:42;;;;;;;6.85;6.35;;;;;;;;;;5076426;28;20197;-87
2022/06/03 04:25:21;;;;;;;6.72;6.22;;;;;;;;;;5072143;28;20273;-86
2022/06/03 04:28:04;;;;;;;6.10;5.70;;;;;;;;;;5072738;28;20197;-86
2022/06/03 04:31:04;;;;;;;6.30;5.90;;;;;;;;;;5074009;28;20200;-86
2022/06/03 04:33:50;;;;;;;6.10;5.70;;;;;;;;;;5072565;28;20296;-86
2022/06/03 04:36:39;;;;;;;5.90;5.50;;;;;;;;;;5071624;28;20258;-86
2022/06/03 04:39:34;;;;;;;6.25;5.85;;;;;;;;;;5073908;28;20299;-87
2022/06/03 04:42:29;;;;;;;6.03;5.63;;;;;;;;;;5074787;28;20207;-87
2022/06/03 04:45:24;;;;;;;6.35;5.95;;;;;;;;;;5073518;28;20197;-84
2022/06/03 04:48:12;;;;;;;28.02;10.15;;;;;;;;;;5028294;28;20300;-82
2022/06/03 04:50:59;;;;;;;30.60;10.88;;;;;;;;;;5079140;28;20201;-83
2022/06/03 04:53:41;;;;;;;32.38;11.52;;;;;;;;;;5077977;28;20200;-84
2022/06/03 04:56:26;;;;;;;45.03;12.70;;;;;;;;;;5076243;28;20201;-84
2022/06/03 04:59:16;;;;;;;8.63;6.57;;;;;;;;;;5076698;28;20251;-82
2022/06/03 05:02:01;;;;;;;11.43;7.22;;;;;;;;;;5074359;28;20231;-80
2022/06/03 05:04:47;;;;;;;13.20;8.38;;;;;;;;;;5067217;28;20752;-83
2022/06/03 05:07:41;;;;;;;14.10;8.35;;;;;;;;;;5062286;28;20236;-85
2022/06/03 05:10:26;;;;;;;14.60;8.38;;;;;;;;;;5063662;28;20221;-84
2022/06/03 05:13:11;;;;;;;11.02;7.22;;;;;;;;;;5067605;28;20208;-86
2022/06/03 05:15:53;;;;;;;9.43;6.78;;;;;;;;;;5069508;28;20201;-84
2022/06/03 05:18:42;;;;;;;12.15;6.80;;;;;;;;;;5060597;28;20312;-83
2022/06/03 05:21:24;;;;;;;9.15;7.05;;;;;;;;;;5057700;28;20224;-84
2022/06/03 05:23:58;;;;;;;8.38;6.63;;;;;;;;;;5065892;28;20269;-82
2022/06/03 05:26:49;;;;;;;12.40;7.00;;;;;;;;;;5063287;28;20287;-79
2022/06/03 05:29:40;;;;;;;11.35;6.75;;;;;;;;;;5041959;28;20248;-82
2022/06/03 05:32:22;;;;;;;9.52;6.47;;;;;;;;;;5049628;28;20211;-80
2022/06/03 05:35:03;;;;;;;8.35;6.78;;;;;;;;;;5032503;28;20276;-81
2022/06/03 05:37:46;;;;;;;8.70;6.13;;;;;;;;;;5062034;28;20243;-80
2022/06/03 05:40:26;;;;;;;10.38;6.80;;;;;;;;;;5060777;28;20324;-81
2022/06/03 05:43:18;;;;;;;8.85;6.25;;;;;;;;;;5065459;28;20212;-82
2022/06/03 05:46:02;;;;;;;8.05;6.15;;;;;;;;;;5063445;28;20687;-81
2022/06/03 05:48:35;;;;;;;9.40;6.65;;;;;;;;;;5069004;28;20268;-81
2022/06/03 05:51:06;;;;;;;9.50;6.18;;;;;;;;;;5071827;28;20262;-81
2022/06/03 05:53:39;;;;;;;8.18;6.60;;;;;;;;;;5070863;28;20196;-81
2022/06/03 05:56:26;;;;;;;9.85;5.90;;;;;;;;;;5066116;28;20620;-82
2022/06/03 05:59:00;;;;;;;7.45;5.75;;;;;;;;;;5065074;28;20266;-81
2022/06/03 06:01:32;;;;;;;10.50;5.63;;;;;;;;;;5065327;28;20221;-80
2022/06/03 06:04:05;;;;;;;8.15;5.85;;;;;;;;;;5067006;28;20232;-84
2022/06/03 06:06:36;;;;;;;8.02;5.43;;;;;;;;;;5061063;28;20227;-79
2022/06/03 06:09:13;;;;;;;5.60;5.10;;;;;;;;;;5066081;28;20278;-81
2022/06/03 06:11:43;;;;;;;9.20;5.90;;;;;;;;;;5066088;28;20197;-81
2022/06/03 06:14:26;;;;;;;7.97;5.95;;;;;;;;;;5069743;28;20216;-80
2022/06/03 06:16:54;;;;;;;6.82;4.88;;;;;;;;;;5069089;28;20292;-80
2022/06/03 06:19:28;;;;;;;6.90;5.10;;;;;;;;;;5069449;28;20220;-81
2022/06/03 06:22:09;;;;;;;7.30;5.55;;;;;;;;;;5061822;28;20200;-84
2022/06/03 06:24:57;;;;;;;6.50;5.13;;;;;;;;;;5062522;28;20201;-83
2022/06/03 06:27:49;;;;;;;7.18;5.03;;;;;;;;;;5064169;28;20211;-84
2022/06/03 06:30:34;;;;;;;5.97;4.85;;;;;;;;;;5062424;28;20254;-84
2022/06/03 06:33:24;;;;;;;7.45;4.88;;;;;;;;;;5066382;28;20208;-84
2022/06/03 06:36:09;;;;;;;6.35;4.90;;;;;;;;;;5062570;28;20197;-83
2022/06/03 06:41:49;;;;;;;5.47;4.68;;;;;;;;;;5051570;28;20213;-82
2022/06/03 06:44:20;;;;;;;6.43;5.00;;;;;;;;;;5049716;28;20236;-82
2022/06/03 06:46:56;;;;;;;6.50;4.63;;;;;;;;;;5045044;28;20263;-82
2022/06/03 06:49:27;;;;;;;5.90;4.50;;;;;;;;;;5043398;28;20253;-82
2022/06/03 06:52:01;;;;;;;5.00;4.50;;;;;;;;;;5043802;28;20212;-82
2022/06/03 06:54:53;;;;;;;5.05;4.65;;;;;;;;;;5043587;28;20220;-85
2022/06/03 07:00:29;;;;;;;4.78;4.38;;;;;;;;;;5016989;28;20233;-81
2022/06/03 07:02:59;;;;;;;5.32;4.78;;;;;;;;;;5049468;28;20209;-82
2022/06/03 07:05:29;;;;;;;5.13;4.18;;;;;;;;;;5047414;28;20263;-83
2022/06/03 07:07:59;;;;;;;4.30;3.90;;;;;;;;;;5052893;28;20262;-81
2022/06/03 07:10:28;;;;;;;5.65;4.85;;;;;;;;;;5049510;28;20287;-82
2022/06/03 07:12:59;;;;;;;4.70;4.20;;;;;;;;;;5046766;28;20262;-82
2022/06/03 07:15:34;;;;;;;6.40;4.40;;;;;;;;;;5050795;28;20202;-81
2022/06/03 07:20:57;;;;;;;4.88;4.45;;;;;;;;;;5046328;28;20208;-82
2022/06/03 07:23:31;;;;;;;4.95;4.43;;;;;;;;;;5051784;28;20237;-82
2022/06/03 07:26:01;;;;;;;4.75;4.35;;;;;;;;;;5052439;28;20267;-81
2022/06/03 07:28:32;;;;;;;4.40;4.00;;;;;;;;;;5053329;28;20213;-82
2022/06/03 07:31:06;;;;;;;5.15;4.50;;;;;;;;;;5037962;28;20230;-84
2022/06/03 07:33:38;;;;;;;4.47;3.85;;;;;;;;;;5045976;28;20205;-81
2022/06/03 07:36:10;;;;;;;4.82;4.35;;;;;;;;;;5048437;28;20301;-82
2022/06/03 07:38:41;;;;;;;4.78;3.88;;;;;;;;;;5047763;28;20284;-81
2022/06/03 07:41:09;;;;;;;5.00;4.20;;;;;;;;;;5054633;28;20201;-82
2022/06/03 07:43:40;;;;;;;4.38;3.90;;;;;;;;;;5067726;28;20231;-81
2022/06/03 07:46:13;;;;;;;4.50;3.80;;;;;;;;;;5069196;28;20200;-82
2022/06/03 07:48:41;;;;;;;4.80;3.90;;;;;;;;;;5070679;28;20217;-81
2022/06/03 07:51:11;;;;;;;4.47;4.07;;;;;;;;;;5071376;28;20234;-80
2022/06/03 07:53:44;;;;;;;4.10;3.80;;;;;;;;;;5064575;28;20197;-82
2022/06/03 07:56:11;;;;;;;4.28;3.88;;;;;;;;;;5058632;28;20216;-80
2022/06/03 07:58:39;;;;;;;4.18;3.78;;;;;;;;;;5065288;28;20236;-81
2022/06/03 08:01:07;;;;;;;3.88;3.58;;;;;;;;;;5067943;28;20258;-82
2022/06/03 08:03:37;;;;;;;3.97;3.67;;;;;;;;;;5062561;28;20200;-82
2022/06/03 08:06:06;;;;;;;4.30;3.90;;;;;;;;;;5067204;28;20255;-82
2022/06/03 08:11:27;;;;;;;4.13;3.72;;;;;;;;;;5065840;28;20231;-82
2022/06/03 08:13:56;;;;;;;4.18;3.78;;;;;;;;;;5089124;28;20200;-82
2022/06/03 08:16:29;;;;;;;3.95;3.60;;;;;;;;;;5080985;28;20212;-82
2022/06/03 08:18:59;;;;;;;4.00;3.55;;;;;;;;;;5067290;28;20324;-82
2022/06/03 08:21:28;;;;;;;4.10;3.80;;;;;;;;;;5065546;28;20212;-82
2022/06/03 08:24:31;;;;;;;3.75;3.45;;;;;;;;;;5067662;28;20678;-85
2022/06/03 08:30:16;;;;;;;3.88;3.55;;;;;;;;;;5067575;28;20221;-85
2022/06/03 08:32:46;;;;;;;4.13;3.65;;;;;;;;;;5068375;28;20216;-81
2022/06/03 08:35:18;;;;;;;3.63;3.33;;;;;;;;;;5064200;28;20227;-82
2022/06/03 08:37:48;;;;;;;3.60;3.30;;;;;;;;;;5070575;28;20205;-82
2022/06/03 08:40:24;;;;;;;3.70;3.40;;;;;;;;;;5076801;23;20222;-85
2022/06/03 08:42:58;;;;;;;3.95;3.55;;;;;;;;;;5052442;28;20250;-84
2022/06/03 08:45:35;;;;;;;4.22;3.65;;;;;;;;;;5055408;28;20200;-84
2022/06/03 08:48:10;;;;;;;4.00;3.60;;;;;;;;;;5049843;28;20197;-85
2022/06/03 08:50:42;;;;;;;3.60;3.30;;;;;;;;;;5037274;28;20233;-85
2022/06/03 08:53:14;;;;;;;4.30;3.70;;;;;;;;;;5053534;28;20209;-85
2022/06/03 08:55:45;;;;;;;3.63;3.30;;;;;;;;;;5052633;28;20232;-84
2022/06/03 08:58:31;;;;;;;3.88;3.58;;;;;;;;;;5047698;28;20208;-84
2022/06/03 09:01:03;;;;;;;4.20;3.38;;;;;;;;;;5053591;28;20204;-84
2022/06/03 09:03:36;;;;;;;3.90;3.60;;;;;;;;;;5055230;28;20199;-84
2022/06/03 09:06:07;;;;;;;3.67;3.42;;;;;;;;;;5043244;28;20208;-85
2022/06/03 09:08:38;;;;;;;13.13;11.75;;;;;;;;;;5039233;28;20343;-85
2022/06/03 09:11:16;;;;;;;17.08;15.07;;;;;;;;;;5037924;28;20334;-83
2022/06/03 09:13:49;;;;;;;18.35;14.20;;;;;;;;;;5049498;28;20209;-87
2022/06/03 09:16:21;;;;;;;18.10;15.95;;;;;;;;;;5044141;28;20210;-87
2022/06/03 09:18:50;;;;;;;24.15;18.50;;;;;;;;;;5047967;28;20221;-85
2022/06/03 09:21:25;;;;;;;26.02;21.63;;;;;;;;;;5044900;28;20217;-85
2022/06/03 09:23:56;;;;;;;24.83;19.63;;;;;;;;;;5050916;28;20205;-84
2022/06/03 09:26:28;;;;;;;20.90;16.85;;;;;;;;;;5042830;28;20209;-84
2022/06/03 09:28:56;;;;;;;21.38;15.98;;;;;;;;;;5050557;28;20221;-84
2022/06/03 09:31:24;;;;;;;19.00;14.40;;;;;;;;;;5043831;28;20214;-84
2022/06/03 09:33:54;;;;;;;15.15;13.07;;;;;;;;;;5061133;28;20205;-82
2022/06/03 09:36:25;;;;;;;15.73;12.60;;;;;;;;;;5043572;28;20225;-84
2022/06/03 09:38:54;;;;;;;16.23;13.43;;;;;;;;;;5038670;28;20335;-85
2022/06/03 09:41:27;;;;;;;16.50;13.13;;;;;;;;;;5025821;28;20215;-83
2022/06/03 09:43:58;;;;;;;16.48;12.25;;;;;;;;;;5016932;28;20217;-84
2022/06/03 09:46:28;;;;;;;12.93;11.13;;;;;;;;;;5027365;28;20293;-85
2022/06/03 09:48:56;;;;;;;14.35;10.80;;;;;;;;;;5036701;28;20307;-83
2022/06/03 09:54:12;;;;;;;12.50;10.07;;;;;;;;;;5023007;28;20214;-85
2022/06/03 09:56:40;;;;;;;14.25;10.07;;;;;;;;;;5027435;28;20202;-84
2022/06/03 09:59:07;;;;;;;11.20;8.13;;;;;;;;;;5027274;28;20234;-84
2022/06/03 10:01:37;;;;;;;10.05;8.18;;;;;;;;;;5021452;28;20194;-87
2022/06/03 10:04:09;;;;;;;11.18;8.68;;;;;;;;;;5024157;28;20221;-84
2022/06/03 10:06:46;;;;;;;8.80;7.45;;;;;;;;;;5026755;28;20202;-84
2022/06/03 10:14:44;;;;;;;9.45;7.25;;;;;;;;;;5028405;28;20198;-83
2022/06/03 10:17:12;;;;;;;8.10;7.30;;;;;;;;;;5032467;28;20203;-82
2022/06/03 10:19:40;;;;;;;8.88;6.70;;;;;;;;;;5028618;28;20230;-84
2022/06/03 10:22:10;;;;;;;8.30;6.97;;;;;;;;;;5026144;28;20210;-82
2022/06/03 10:24:38;;;;;;;8.30;6.95;;;;;;;;;;5021635;28;20203;-85
2022/06/03 10:27:07;;;;;;;8.10;6.95;;;;;;;;;;5019005;28;20206;-85
2022/06/03 10:29:46;;;;;;;11.07;7.20;;;;;;;;;;5020801;28;20273;-85
2022/06/03 10:32:16;;;;;;;8.10;6.50;;;;;;;;;;5022906;28;20206;-85
2022/06/03 10:34:49;;;;;;;7.32;6.55;;;;;;;;;;5025071;28;20202;-84
2022/06/03 10:37:22;;;;;;;7.28;5.70;;;;;;;;;;5024971;28;20492;-85
2022/06/03 10:39:57;;;;;;;6.03;5.43;;;;;;;;;;5029475;28;20225;-83
2022/06/03 10:42:25;;;;;;;5.60;5.10;;;;;;;;;;5025293;28;20205;-84
2022/06/03 10:44:57;;;;;;;5.75;5.25;;;;;;;;;;5030101;28;20260;-85
2022/06/03 10:47:25;;;;;;;5.32;4.90;;;;;;;;;;5024423;28;20202;-83
2022/06/03 10:49:53;;;;;;;5.78;4.95;;;;;;;;;;5022945;28;20218;-84
2022/06/03 11:01:13;;;;;;;5.47;4.53;;;;;;;;;;5027604;28;20225;-84
2022/06/03 11:03:43;;;;;;;5.45;4.47;;;;;;;;;;5022507;28;20212;-84
2022/06/03 11:06:16;;;;;;;5.07;4.68;;;;;;;;;;5022846;28;20206;-85
2022/06/03 11:08:53;;;;;;;5.88;4.43;;;;;;;;;;5023236;28;20239;-84
2022/06/03 11:11:37;;;;;;;4.80;4.40;;;;;;;;;;5030308;28;20262;-85
2022/06/03 11:14:29;;;;;;;5.07;4.18;;;;;;;;;;5021950;28;20213;-85
2022/06/03 11:17:00;;;;;;;4.57;4.25;;;;;;;;;;5028610;28;20198;-85
2022/06/03 11:19:31;;;;;;;4.95;4.55;;;;;;;;;;5029022;28;20226;-85
2022/06/03 11:22:23;;;;;;;4.70;4.30;;;;;;;;;;5023769;28;20210;-85
2022/06/03 11:25:02;;;;;;;4.53;3.97;;;;;;;;;;5002848;28;20214;-84
2022/06/03 11:27:36;;;;;;;4.30;4.00;;;;;;;;;;5017491;28;20202;-85
2022/06/03 11:30:06;;;;;;;4.60;4.28;;;;;;;;;;5024591;28;20223;-84
2022/06/03 11:32:35;;;;;;;4.30;4.00;;;;;;;;;;5022800;28;20222;-84
2022/06/03 11:35:04;;;;;;;4.35;4.05;;;;;;;;;;5030877;28;20206;-85
2022/06/03 11:37:36;;;;;;;4.88;4.57;;;;;;;;;;5032289;28;20242;-84
2022/06/03 11:40:06;;;;;;;4.80;4.40;;;;;;;;;;5016849;28;20230;-85
2022/06/03 11:42:37;;;;;;;4.70;4.30;;;;;;;;;;5019807;28;20209;-85
2022/06/03 11:45:09;;;;;;;4.22;3.83;;;;;;;;;;5017058;28;20221;-84
2022/06/03 11:47:39;;;;;;;4.78;4.32;;;;;;;;;;5028653;28;20255;-85
2022/06/03 11:50:12;;;;;;;5.28;4.15;;;;;;;;;;5026982;28;20226;-85
2022/06/03 11:52:40;;;;;;;4.88;4.47;;;;;;;;;;5019234;28;20201;-85
2022/06/03 11:55:11;;;;;;;3.83;3.60;;;;;;;;;;5020344;28;20269;-82
2022/06/03 11:57:42;;;;;;;4.65;4.25;;;;;;;;;;5025053;28;20206;-83
2022/06/03 12:00:12;;;;;;;4.32;3.92;;;;;;;;;;5022429;28;20248;-85
2022/06/03 12:02:46;;;;;;;4.45;4.05;;;;;;;;;;5022419;28;20273;-84
2022/06/03 12:05:16;;;;;;;5.22;4.28;;;;;;;;;;5017857;28;20207;-86
2022/06/03 12:07:47;;;;;;;4.18;3.70;;;;;;;;;;5017516;28;20223;-85
2022/06/03 12:10:20;;;;;;;4.32;3.78;;;;;;;;;;5017433;28;20693;-84
2022/06/03 12:15:52;;;;;;;4.40;4.00;;;;;;;;;;5018979;28;20201;-84
2022/06/03 12:18:47;;;;;;;4.20;3.78;;;;;;;;;;5023119;28;20206;-85
2022/06/03 12:21:44;;;;;;;4.30;3.90;;;;;;;;;;5025734;28;20252;-85
2022/06/03 12:24:21;;;;;;;4.20;3.90;;;;;;;;;;5020941;28;20217;-85
2022/06/03 12:26:53;;;;;;;4.10;3.80;;;;;;;;;;5022016;28;20199;-88
2022/06/03 12:29:31;;;;;;;3.85;3.55;;;;;;;;;;5025892;28;20222;-84
2022/06/03 12:32:12;;;;;;;4.22;3.70;;;;;;;;;;5018801;28;20232;-84
2022/06/03 12:34:39;;;;;;;4.22;3.92;;;;;;;;;;5022846;28;20203;-85
2022/06/03 12:37:23;;;;;;;4.50;4.13;;;;;;;;;;5017723;28;20214;-85
2022/06/03 12:39:58;;;;;;;4.20;3.88;;;;;;;;;;5022402;28;20230;-85
2022/06/03 12:42:40;;;;;;;5.13;4.47;;;;;;;;;;5025066;28;20210;-85
2022/06/03 12:45:38;;;;;;;5.47;4.30;;;;;;;;;;5019511;28;20260;-85
2022/06/03 12:48:39;;;;;;;3.85;3.55;;;;;;;;;;5019002;28;20205;-85
2022/06/03 12:51:25;;;;;;;4.00;3.60;;;;;;;;;;5017967;28;20205;-86
2022/06/03 12:53:54;;;;;;;5.50;4.18;;;;;;;;;;5018569;28;20202;-86
2022/06/03 12:56:42;;;;;;;4.80;4.18;;;;;;;;;;5022889;28;20216;-84
2022/06/03 12:59:19;;;;;;;4.55;4.15;;;;;;;;;;5023533;28;20222;-84
2022/06/03 13:01:51;;;;;;;5.38;4.35;;;;;;;;;;5028216;28;20201;-83
2022/06/03 13:04:55;;;;;;;4.60;4.20;;;;;;;;;;5025036;28;20330;-84
2022/06/03 13:07:39;;;;;;;5.05;4.40;;;;;;;;;;4942694;29;20240;-84
2022/06/03 13:10:34;;;;;;;4.43;4.03;;;;;;;;;;4945217;28;20232;-85
2022/06/03 13:13:20;;;;;;;4.32;3.92;;;;;;;;;;5006517;28;20269;-85
2022/06/03 13:15:50;;;;;;;4.75;4.10;;;;;;;;;;5022872;28;20290;-84
2022/06/03 13:18:39;;;;;;;6.28;4.45;;;;;;;;;;5025554;28;20662;-85
2022/06/03 13:21:17;;;;;;;5.82;4.50;;;;;;;;;;5032097;28;20232;-84
2022/06/03 13:24:08;;;;;;;7.47;4.80;;;;;;;;;;5037170;28;20202;-84
2022/06/03 13:26:47;;;;;;;5.45;4.50;;;;;;;;;;5007384;28;20201;-83
2022/06/03 13:29:34;;;;;;;7.30;4.70;;;;;;;;;;5025593;28;20221;-82
2022/06/03 13:32:04;;;;;;;5.43;4.88;;;;;;;;;;5031062;28;20233;-83
2022/06/03 13:34:32;;;;;;;6.43;4.50;;;;;;;;;;5030954;28;20228;-82
2022/06/03 13:37:23;;;;;;;5.07;4.57;;;;;;;;;;5035249;28;20240;-83
2022/06/03 13:40:18;;;;;;;4.90;4.50;;;;;;;;;;5029566;28;20245;-82
2022/06/03 13:43:05;;;;;;;5.70;4.57;;;;;;;;;;5034704;28;20213;-82
2022/06/03 13:45:57;;;;;;;5.32;4.75;;;;;;;;;;5029411;28;20211;-83
2022/06/03 13:48:30;;;;;;;5.47;4.90;;;;;;;;;;5016077;28;20243;-82
2022/06/03 13:50:57;;;;;;;5.60;4.45;;;;;;;;;;5033688;28;20230;-83
2022/06/03 13:53:26;;;;;;;5.68;4.72;;;;;;;;;;5028527;28;20224;-83
2022/06/03 13:55:55;;;;;;;5.38;4.88;;;;;;;;;;5025721;28;20202;-82
2022/06/03 13:58:25;;;;;;;6.07;4.50;;;;;;;;;;5028302;28;20198;-82
2022/06/03 14:01:00;;;;;;;5.55;4.45;;;;;;;;;;5025927;28;20210;-83
2022/06/03 14:03:30;;;;;;;4.88;4.38;;;;;;;;;;5024580;28;20294;-82
2022/06/03 14:05:59;;;;;;;4.60;4.20;;;;;;;;;;5024746;28;20198;-82
2022/06/03 14:08:33;;;;;;;5.10;4.40;;;;;;;;;;5019593;28;20208;-80
2022/06/03 14:11:06;;;;;;;5.57;4.93;;;;;;;;;;5029452;28;20283;-79
2022/06/03 14:13:38;;;;;;;6.03;4.55;;;;;;;;;;5018048;28;20202;-79
2022/06/03 14:16:11;;;;;;;4.75;4.22;;;;;;;;;;5020881;28;20206;-81
2022/06/03 14:18:54;;;;;;;5.00;4.60;;;;;;;;;;5024974;28;20299;-81
2022/06/03 14:21:25;;;;;;;4.68;4.28;;;;;;;;;;5029195;28;20214;-81
2022/06/03 14:23:55;;;;;;;4.50;4.10;;;;;;;;;;5027644;28;20206;-81
2022/06/03 14:26:26;;;;;;;4.30;4.00;;;;;;;;;;5024327;28;20202;-81
2022/06/03 14:28:56;;;;;;;4.65;4.25;;;;;;;;;;5025360;28;20260;-81
2022/06/03 14:31:31;;;;;;;5.85;4.40;;;;;;;;;;5022630;28;20207;-86
2022/06/03 14:34:07;;;;;;;4.90;4.50;;;;;;;;;;5025842;28;20197;-81
2022/06/03 14:36:35;;;;;;;4.53;4.20;;;;;;;;;;5026149;28;20206;-81
2022/06/03 14:39:08;;;;;;;5.20;4.80;;;;;;;;;;5041476;23;20234;-79
2022/06/03 14:41:38;;;;;;;4.93;4.50;;;;;;;;;;5034147;28;20233;-80
2022/06/03 14:44:07;;;;;;;4.57;4.15;;;;;;;;;;5038957;28;20197;-80
2022/06/03 14:46:36;;;;;;;4.93;4.43;;;;;;;;;;5044339;28;20568;-79
2022/06/03 14:49:07;;;;;;;5.03;4.50;;;;;;;;;;5045801;28;20217;-79
2022/06/03 14:51:35;;;;;;;5.18;4.70;;;;;;;;;;5048786;28;20204;-79
2022/06/03 14:54:04;;;;;;;4.82;4.40;;;;;;;;;;5052425;28;20209;-80
2022/06/03 14:56:35;;;;;;;5.30;4.75;;;;;;;;;;5054201;28;20205;-80
2022/06/03 14:59:04;;;;;;;4.93;4.50;;;;;;;;;;5053427;28;20218;-80
2022/06/03 15:01:40;;;;;;;4.78;4.38;;;;;;;;;;5051680;28;20223;-80
2022/06/03 15:04:10;;;;;;;5.97;4.55;;;;;;;;;;5053776;28;20209;-80
2022/06/03 15:06:39;;;;;;;5.05;4.53;;;;;;;;;;5056250;28;20205;-79
2022/06/03 15:09:13;;;;;;;5.30;4.90;;;;;;;;;;5050077;28;20221;-81
2022/06/03 15:11:43;;;;;;;10.05;4.47;;;;;;;;;;5051848;28;20613;-82
2022/06/03 15:14:15;;;;;;;4.65;4.20;;;;;;;;;;5050980;28;20237;-83
2022/06/03 15:16:51;;;;;;;8.25;4.78;;;;;;;;;;5049659;28;20259;-81
2022/06/03 15:19:49;;;;;;;14.77;4.97;;;;;;;;;;5055178;28;20551;-87
2022/06/03 15:22:19;;;;;;;7.10;4.60;;;;;;;;;;5050408;28;20217;-86
2022/06/03 15:24:49;;;;;;;5.57;4.97;;;;;;;;;;5049720;28;20198;-85
2022/06/03 15:27:16;;;;;;;5.40;4.95;;;;;;;;;;5045116;28;20209;-86
2022/06/03 15:29:44;;;;;;;5.45;4.45;;;;;;;;;;5050107;28;20795;-85
2022/06/03 15:32:11;;;;;;;5.20;4.70;;;;;;;;;;5048171;28;20197;-85
2022/06/03 15:34:39;;;;;;;5.45;4.38;;;;;;;;;;5047266;28;20198;-85
2022/06/03 15:37:07;;;;;;;5.10;4.65;;;;;;;;;;5053768;28;20205;-86
2022/06/03 15:39:41;;;;;;;5.38;4.97;;;;;;;;;;5044345;28;20317;-86
2022/06/03 15:42:11;;;;;;;5.22;4.72;;;;;;;;;;5023975;28;20222;-83
2022/06/03 15:44:41;;;;;;;5.80;5.00;;;;;;;;;;5032533;28;20272;-85
2022/06/03 15:47:11;;;;;;;5.30;4.90;;;;;;;;;;5033983;28;20229;-85
2022/06/03 15:49:39;;;;;;;5.45;5.05;;;;;;;;;;5032602;28;20226;-85
2022/06/03 15:52:11;;;;;;;5.15;4.75;;;;;;;;;;5020306;28;20198;-85
2022/06/03 15:54:41;;;;;;;5.22;4.72;;;;;;;;;;5015448;28;20210;-86
2022/06/03 15:57:23;;;;;;;4.97;4.60;;;;;;;;;;5023175;28;20692;-85
2022/06/03 16:00:01;;;;;;;4.97;4.57;;;;;;;;;;5024774;28;20228;-85
2022/06/03 16:02:38;;;;;;;5.63;5.18;;;;;;;;;;5027441;28;20218;-85
2022/06/03 16:05:13;;;;;;;5.68;5.22;;;;;;;;;;5027561;28;20225;-85
2022/06/03 16:07:53;;;;;;;5.13;4.75;;;;;;;;;;5026525;28;20202;-85
2022/06/03 16:10:21;;;;;;;5.40;5.00;;;;;;;;;;5024802;28;20226;-85